sensor_id;sensor_type;location;lat;lon;timestamp;pressure;altitude;pressure_sealevel;temperature;humidity
53671;BME280;39571;48.612;8.088;2023-04-09T07:16:18;100536.69;;;20.66;49.47
53671;BME280;39571;48.612;8.088;2023-04-09T07:18:43;100542.00;;;18.57;54.63
53671;BME280;39571;48.612;8.088;2023-04-09T07:21:09;100540.56;;;17.62;59.73
53671;BME280;39571;48.612;8.088;2023-04-09T07:23:35;100546.66;;;16.71;66.08
53671;BME280;39571;48.612;8.088;2023-04-09T07:26:04;100557.69;;;16.14;76.22
53671;BME280;39571;48.612;8.088;2023-04-09T07:28:30;100560.44;;;15.71;82.73
53671;BME280;39571;48.612;8.088;2023-04-09T07:30:55;100556.81;;;15.32;92.94
53671;BME280;39571;48.612;8.088;2023-04-09T07:33:20;100565.31;;;15.46;94.53
53671;BME280;39571;48.612;8.088;2023-04-09T07:35:46;100556.41;;;15.09;96.21
53671;BME280;39571;48.612;8.088;2023-04-09T07:38:11;100564.00;;;15.24;100.00
53671;BME280;39571;48.612;8.088;2023-04-09T07:40:37;100567.66;;;15.17;92.18
53671;BME280;39571;48.612;8.088;2023-04-09T07:43:03;100564.84;;;15.26;91.51
53671;BME280;39571;48.612;8.088;2023-04-09T07:45:28;100570.78;;;15.37;89.33
53671;BME280;39571;48.612;8.088;2023-04-09T07:47:54;100569.78;;;15.44;85.76
53671;BME280;39571;48.612;8.088;2023-04-09T07:50:19;100574.00;;;15.54;84.32
53671;BME280;39571;48.612;8.088;2023-04-09T07:52:44;100571.97;;;15.65;80.21
53671;BME280;39571;48.612;8.088;2023-04-09T07:55:10;100569.72;;;15.89;80.76
53671;BME280;39571;48.612;8.088;2023-04-09T07:57:35;100564.66;;;16.18;82.13
53671;BME280;39571;48.612;8.088;2023-04-09T08:00:01;100566.72;;;16.42;72.62
53671;BME280;39571;48.612;8.088;2023-04-09T08:02:26;100562.41;;;17.38;69.26
53671;BME280;39571;48.612;8.088;2023-04-09T08:04:51;100548.94;;;23.13;47.99
53671;BME280;39571;48.612;8.088;2023-04-09T08:07:17;100544.81;;;26.39;37.98
53671;BME280;39571;48.612;8.088;2023-04-09T08:09:42;100536.78;;;28.41;33.08
53671;BME280;39571;48.612;8.088;2023-04-09T08:12:07;100529.44;;;29.47;30.64
53671;BME280;39571;48.612;8.088;2023-04-09T08:14:33;100524.44;;;30.94;27.58
53671;BME280;39571;48.612;8.088;2023-04-09T08:16:58;100524.19;;;30.97;26.59
53671;BME280;39571;48.612;8.088;2023-04-09T08:19:23;100521.97;;;31.23;26.66
53671;BME280;39571;48.612;8.088;2023-04-09T08:21:49;100518.84;;;30.11;27.49
53671;BME280;39571;48.612;8.088;2023-04-09T08:24:14;100534.06;;;25.27;31.46
53671;BME280;39571;48.612;8.088;2023-04-09T08:26:41;100541.75;;;22.45;35.77
53671;BME280;39571;48.612;8.088;2023-04-09T08:29:07;100533.59;;;26.59;32.17
53671;BME280;39571;48.612;8.088;2023-04-09T08:31:33;100528.09;;;26.21;31.55
53671;BME280;39571;48.612;8.088;2023-04-09T08:33:58;100535.72;;;22.95;34.38
53671;BME280;39571;48.612;8.088;2023-04-09T08:42:05;100524.13;;;24.55;35.82
53671;BME280;39571;48.612;8.088;2023-04-09T08:44:31;100517.78;;;28.66;30.82
53671;BME280;39571;48.612;8.088;2023-04-09T08:46:56;100513.28;;;26.82;30.42
53671;BME280;39571;48.612;8.088;2023-04-09T08:49:23;100521.66;;;24.67;32.34
53671;BME280;39571;48.612;8.088;2023-04-09T08:51:49;100524.88;;;22.81;33.45
53671;BME280;39571;48.612;8.088;2023-04-09T08:54:16;100528.59;;;20.70;38.21
53671;BME280;39571;48.612;8.088;2023-04-09T08:56:43;100537.28;;;19.64;41.17
53671;BME280;39571;48.612;8.088;2023-04-09T08:59:09;100543.88;;;18.26;43.72
53671;BME280;39571;48.612;8.088;2023-04-09T09:07:05;100545.75;;;16.72;50.30
53671;BME280;39571;48.612;8.088;2023-04-09T09:09:31;100544.47;;;19.13;49.04
53671;BME280;39571;48.612;8.088;2023-04-09T09:11:56;100522.84;;;24.77;39.21
53671;BME280;39571;48.612;8.088;2023-04-09T09:14:21;100528.81;;;24.05;35.74
53671;BME280;39571;48.612;8.088;2023-04-09T09:21:57;100536.44;;;18.65;42.85
53671;BME280;39571;48.612;8.088;2023-04-09T09:24:22;100537.50;;;17.76;45.52
53671;BME280;39571;48.612;8.088;2023-04-09T09:26:48;100544.88;;;17.96;46.09
53671;BME280;39571;48.612;8.088;2023-04-09T09:29:13;100543.41;;;17.24;46.55
53671;BME280;39571;48.612;8.088;2023-04-09T09:31:47;100543.41;;;16.59;49.13
53671;BME280;39571;48.612;8.088;2023-04-09T09:34:14;100552.59;;;16.43;51.17
53671;BME280;39571;48.612;8.088;2023-04-09T09:36:41;100539.00;;;16.23;51.32
53671;BME280;39571;48.612;8.088;2023-04-09T09:39:06;100541.59;;;15.88;53.57
53671;BME280;39571;48.612;8.088;2023-04-09T09:41:35;100540.06;;;15.78;50.86
53671;BME280;39571;48.612;8.088;2023-04-09T09:44:01;100535.97;;;15.63;50.06
53671;BME280;39571;48.612;8.088;2023-04-09T09:46:30;100539.22;;;15.33;48.94
53671;BME280;39571;48.612;8.088;2023-04-09T09:48:58;100537.34;;;15.39;49.94
53671;BME280;39571;48.612;8.088;2023-04-09T09:51:24;100537.63;;;15.24;48.39
53671;BME280;39571;48.612;8.088;2023-04-09T09:53:57;100529.63;;;15.29;47.77
53671;BME280;39571;48.612;8.088;2023-04-09T09:56:24;100532.31;;;15.27;47.36
53671;BME280;39571;48.612;8.088;2023-04-09T09:59:06;100526.97;;;15.30;47.76
53671;BME280;39571;48.612;8.088;2023-04-09T10:01:32;100520.97;;;15.24;48.47
53671;BME280;39571;48.612;8.088;2023-04-09T10:03:59;100513.59;;;15.39;47.87
53671;BME280;39571;48.612;8.088;2023-04-09T10:06:25;100527.72;;;15.37;46.50
53671;BME280;39571;48.612;8.088;2023-04-09T10:08:56;100521.88;;;15.21;45.76
53671;BME280;39571;48.612;8.088;2023-04-09T10:11:21;100519.16;;;15.24;44.57
53671;BME280;39571;48.612;8.088;2023-04-09T10:13:57;100519.81;;;15.35;45.21
53671;BME280;39571;48.612;8.088;2023-04-09T10:16:24;100515.03;;;15.55;44.47
53671;BME280;39571;48.612;8.088;2023-04-09T10:18:50;100517.28;;;15.74;44.40
53671;BME280;39571;48.612;8.088;2023-04-09T10:23:47;100518.09;;;15.76;45.12
53671;BME280;39571;48.612;8.088;2023-04-09T10:26:17;100514.84;;;15.64;43.20
53671;BME280;39571;48.612;8.088;2023-04-09T10:28:42;100520.28;;;15.57;44.91
53671;BME280;39571;48.612;8.088;2023-04-09T10:31:07;100516.03;;;15.51;43.32
53671;BME280;39571;48.612;8.088;2023-04-09T10:33:35;100516.47;;;15.70;46.21
53671;BME280;39571;48.612;8.088;2023-04-09T10:36:09;100510.59;;;15.57;46.42
53671;BME280;39571;48.612;8.088;2023-04-09T10:38:37;100512.78;;;15.77;46.45
53671;BME280;39571;48.612;8.088;2023-04-09T10:41:14;100508.09;;;15.90;45.38
53671;BME280;39571;48.612;8.088;2023-04-09T10:43:41;100506.16;;;15.98;45.17
53671;BME280;39571;48.612;8.088;2023-04-09T10:46:26;100502.63;;;15.99;45.90
53671;BME280;39571;48.612;8.088;2023-04-09T10:51:37;100499.00;;;16.03;46.05
53671;BME280;39571;48.612;8.088;2023-04-09T10:54:05;100491.66;;;16.14;46.34
53671;BME280;39571;48.612;8.088;2023-04-09T10:56:32;100507.88;;;16.34;45.96
53671;BME280;39571;48.612;8.088;2023-04-09T10:58:57;100494.22;;;16.18;45.10
53671;BME280;39571;48.612;8.088;2023-04-09T11:01:22;100513.81;;;16.10;42.34
53671;BME280;39571;48.612;8.088;2023-04-09T11:04:07;100504.84;;;15.79;42.69
53671;BME280;39571;48.612;8.088;2023-04-09T11:06:35;100502.78;;;15.53;40.89
53671;BME280;39571;48.612;8.088;2023-04-09T11:09:01;100505.47;;;15.51;42.65
53671;BME280;39571;48.612;8.088;2023-04-09T11:11:29;100512.84;;;15.33;41.63
53671;BME280;39571;48.612;8.088;2023-04-09T11:13:58;100504.16;;;15.71;42.33
53671;BME280;39571;48.612;8.088;2023-04-09T11:16:27;100491.50;;;15.85;42.83
53671;BME280;39571;48.612;8.088;2023-04-09T11:18:53;100497.06;;;15.73;40.94
53671;BME280;39571;48.612;8.088;2023-04-09T11:21:20;100499.63;;;15.76;41.14
53671;BME280;39571;48.612;8.088;2023-04-09T11:23:50;100490.94;;;16.07;44.40
53671;BME280;39571;48.612;8.088;2023-04-09T11:26:16;100493.19;;;16.24;41.47
53671;BME280;39571;48.612;8.088;2023-04-09T11:28:42;100492.97;;;16.33;42.11
53671;BME280;39571;48.612;8.088;2023-04-09T11:31:08;100480.28;;;16.12;40.93
53671;BME280;39571;48.612;8.088;2023-04-09T11:33:33;100485.44;;;15.80;40.66
53671;BME280;39571;48.612;8.088;2023-04-09T11:35:58;100485.44;;;15.80;41.32
53671;BME280;39571;48.612;8.088;2023-04-09T11:38:24;100486.31;;;15.80;41.88
53671;BME280;39571;48.612;8.088;2023-04-09T11:40:49;100476.34;;;15.93;44.27
53671;BME280;39571;48.612;8.088;2023-04-09T11:43:15;100491.47;;;15.46;42.11
53671;BME280;39571;48.612;8.088;2023-04-09T11:45:42;100481.50;;;15.19;43.23
53671;BME280;39571;48.612;8.088;2023-04-09T11:48:07;100496.13;;;15.34;45.27
53671;BME280;39571;48.612;8.088;2023-04-09T11:50:33;100493.66;;;15.26;44.87
53671;BME280;39571;48.612;8.088;2023-04-09T11:52:58;100495.03;;;15.02;43.96
53671;BME280;39571;48.612;8.088;2023-04-09T11:55:28;100499.28;;;15.08;45.73
53671;BME280;39571;48.612;8.088;2023-04-09T11:57:56;100497.78;;;14.95;44.24
53671;BME280;39571;48.612;8.088;2023-04-09T12:00:22;100500.34;;;14.99;45.41
53671;BME280;39571;48.612;8.088;2023-04-09T12:02:59;100484.88;;;15.24;46.27
53671;BME280;39571;48.612;8.088;2023-04-09T12:05:28;100483.84;;;15.31;43.60
53671;BME280;39571;48.612;8.088;2023-04-09T12:08:12;100479.69;;;15.21;42.81
53671;BME280;39571;48.612;8.088;2023-04-09T12:10:37;100471.41;;;15.38;44.91
53671;BME280;39571;48.612;8.088;2023-04-09T12:13:07;100475.19;;;15.68;46.74
53671;BME280;39571;48.612;8.088;2023-04-09T12:15:35;100471.38;;;15.81;44.46
53671;BME280;39571;48.612;8.088;2023-04-09T12:18:01;100479.91;;;15.53;42.82
53671;BME280;39571;48.612;8.088;2023-04-09T12:20:35;100468.53;;;15.51;43.71
53671;BME280;39571;48.612;8.088;2023-04-09T12:23:02;100470.44;;;15.43;43.89
53671;BME280;39571;48.612;8.088;2023-04-09T12:25:40;100468.81;;;15.36;45.92
53671;BME280;39571;48.612;8.088;2023-04-09T12:28:06;100477.69;;;15.32;44.94
53671;BME280;39571;48.612;8.088;2023-04-09T12:30:32;100468.19;;;14.81;46.30
53671;BME280;39571;48.612;8.088;2023-04-09T12:32:59;100467.09;;;14.48;45.24
53671;BME280;39571;48.612;8.088;2023-04-09T12:35:24;100478.19;;;14.63;46.72
53671;BME280;39571;48.612;8.088;2023-04-09T12:37:50;100473.13;;;14.99;48.63
53671;BME280;39571;48.612;8.088;2023-04-09T12:40:16;100471.19;;;15.07;45.50
53671;BME280;39571;48.612;8.088;2023-04-09T12:42:43;100472.72;;;15.17;46.54
53671;BME280;39571;48.612;8.088;2023-04-09T12:45:11;100477.31;;;15.07;45.27
53671;BME280;39571;48.612;8.088;2023-04-09T12:47:37;100493.00;;;15.13;44.97
53671;BME280;39571;48.612;8.088;2023-04-09T12:50:04;100475.00;;;14.92;44.91
53671;BME280;39571;48.612;8.088;2023-04-09T12:52:30;100470.94;;;15.19;46.08
53671;BME280;39571;48.612;8.088;2023-04-09T12:54:55;100474.53;;;15.15;44.11
53671;BME280;39571;48.612;8.088;2023-04-09T12:57:20;100472.28;;;15.38;46.58
53671;BME280;39571;48.612;8.088;2023-04-09T12:59:46;100472.66;;;15.63;47.54
